Time;durP1;ratioP1;P1;durP2;ratioP2;P2;SDS_P1;SDS_P2;PMS_P1;PMS_P2;Temp;Humidity;BMP_temperature;BMP_pressure;BME280_temperature;BME280_humidity;BME280_pressure;Samples;Min_cycle;Max_cycle;Signal;HPM_P1;HPM_P2
2022/04/07 00:01:01;;;;;;;6.60;3.27;;;9.90;97.30;;;;;;4998019;28;20190;-83
2022/04/07 00:03:26;;;;;;;5.30;2.57;;;9.80;97.30;;;;;;4998663;28;20222;-83
2022/04/07 00:05:52;;;;;;;4.73;3.00;;;9.80;97.30;;;;;;4997734;28;20174;-83
2022/04/07 00:08:18;;;;;;;4.03;2.50;;;9.90;97.30;;;;;;4996934;28;20180;-82
2022/04/07 00:10:44;;;;;;;9.40;2.73;;;9.90;97.30;;;;;;4997239;28;20178;-82
2022/04/07 00:13:10;;;;;;;3.47;3.17;;;9.90;97.30;;;;;;4997722;28;20689;-81
2022/04/07 00:15:36;;;;;;;6.23;2.57;;;9.90;97.30;;;;;;4999054;28;20421;-82
2022/04/07 00:18:02;;;;;;;4.43;2.60;;;10.00;97.30;;;;;;4997416;28;20182;-83
2022/04/07 00:20:29;;;;;;;8.83;3.00;;;10.00;97.30;;;;;;5001934;28;20243;-82
2022/04/07 00:22:57;;;;;;;5.13;2.50;;;10.00;97.30;;;;;;5001091;28;20535;-81
2022/04/07 00:25:23;;;;;;;6.40;2.67;;;10.00;97.30;;;;;;5000743;28;20444;-82
2022/04/07 00:27:48;;;;;;;8.07;3.40;;;10.00;97.30;;;;;;5000257;28;20417;-81
2022/04/07 00:30:17;;;;;;;6.93;3.07;;;10.00;97.30;;;;;;4998996;28;20540;-83
2022/04/07 00:32:43;;;;;;;9.27;3.40;;;10.10;97.30;;;;;;4999566;28;20221;-82
2022/04/07 00:35:09;;;;;;;6.00;2.60;;;10.10;97.30;;;;;;4999188;28;20529;-82
2022/04/07 00:37:35;;;;;;;11.93;3.77;;;10.10;97.30;;;;;;4998692;28;20469;-81
2022/04/07 00:40:01;;;;;;;5.20;2.60;;;10.10;97.30;;;;;;4998371;28;20413;-82
2022/04/07 00:42:26;;;;;;;4.07;2.47;;;10.20;97.30;;;;;;4997769;28;20471;-81
2022/04/07 00:44:52;;;;;;;4.60;2.77;;;10.20;97.30;;;;;;4997151;28;20213;-81
2022/04/07 00:47:19;;;;;;;13.20;3.33;;;10.20;97.30;;;;;;4997490;28;20182;-80
2022/04/07 00:49:45;;;;;;;6.97;3.03;;;10.10;97.30;;;;;;4997673;28;20444;-80
2022/04/07 00:52:12;;;;;;;3.47;2.93;;;10.10;97.30;;;;;;4997248;28;20413;-80
2022/04/07 00:54:38;;;;;;;6.70;2.60;;;10.10;97.30;;;;;;4998382;28;20617;-81
2022/04/07 00:57:05;;;;;;;8.30;2.80;;;10.00;97.30;;;;;;4997580;28;20416;-80
2022/04/07 00:59:33;;;;;;;5.90;2.43;;;10.00;97.30;;;;;;4997424;28;20508;-81
2022/04/07 01:02:00;;;;;;;4.70;2.70;;;10.00;97.30;;;;;;4997248;28;20922;-81
2022/04/07 01:04:26;;;;;;;5.57;2.20;;;10.00;97.30;;;;;;4998064;28;20472;-82
2022/04/07 01:06:52;;;;;;;5.30;2.43;;;10.00;97.30;;;;;;4998098;28;20447;-81
2022/04/07 01:09:20;;;;;;;6.40;3.53;;;10.00;97.30;;;;;;4996739;28;20516;-81
2022/04/07 01:11:46;;;;;;;4.07;2.30;;;10.00;97.30;;;;;;4997187;28;21158;-81
2022/04/07 01:14:12;;;;;;;5.40;2.50;;;10.00;97.30;;;;;;4998510;28;20931;-80
2022/04/07 01:16:38;;;;;;;4.47;2.87;;;10.00;97.30;;;;;;4997414;28;20425;-81
2022/04/07 01:19:05;;;;;;;3.50;2.40;;;10.00;97.30;;;;;;4998661;28;20173;-80
2022/04/07 01:21:34;;;;;;;7.93;2.90;;;10.00;97.30;;;;;;4998111;28;20894;-79
2022/04/07 01:24:07;;;;;;;3.03;2.20;;;10.00;97.30;;;;;;4998524;28;20551;-80
2022/04/07 01:26:37;;;;;;;6.33;2.63;;;10.00;97.30;;;;;;4996681;28;20421;-81
2022/04/07 01:29:03;;;;;;;5.53;2.70;;;10.00;97.30;;;;;;4996843;28;20428;-79
2022/04/07 01:31:29;;;;;;;3.20;2.47;;;10.00;97.30;;;;;;4995476;28;20484;-80
2022/04/07 01:33:57;;;;;;;5.97;3.03;;;10.00;97.30;;;;;;4998057;28;20436;-80
2022/04/07 01:36:24;;;;;;;6.93;3.60;;;10.00;97.30;;;;;;4997163;28;20225;-81
2022/04/07 01:38:50;;;;;;;6.63;2.60;;;10.00;97.30;;;;;;4996707;28;20425;-81
2022/04/07 01:41:19;;;;;;;3.40;2.30;;;10.00;97.30;;;;;;4996682;28;20495;-80
2022/04/07 01:43:47;;;;;;;4.80;2.73;;;10.00;97.30;;;;;;4996525;28;20749;-81
2022/04/07 01:46:13;;;;;;;2.60;2.43;;;9.90;97.30;;;;;;4997796;28;20420;-81
2022/04/07 01:48:40;;;;;;;5.00;3.10;;;9.90;97.30;;;;;;4995924;28;20417;-80
2022/04/07 01:51:08;;;;;;;3.20;2.57;;;9.80;97.30;;;;;;4996418;28;20472;-80
2022/04/07 01:53:34;;;;;;;3.47;2.30;;;9.80;97.30;;;;;;4995948;28;20982;-80
2022/04/07 01:56:01;;;;;;;4.43;2.90;;;9.80;97.30;;;;;;4996474;28;20474;-82
2022/04/07 01:58:27;;;;;;;4.87;2.20;;;9.70;97.30;;;;;;4996745;28;20440;-83
2022/04/07 02:00:54;;;;;;;3.23;2.53;;;9.70;97.30;;;;;;4995967;28;20429;-81
2022/04/07 02:03:20;;;;;;;6.80;2.77;;;9.70;97.30;;;;;;4996461;28;20565;-81
2022/04/07 02:05:46;;;;;;;6.27;2.50;;;9.70;97.30;;;;;;4997117;28;20445;-81
2022/04/07 02:08:11;;;;;;;5.53;2.60;;;9.70;97.30;;;;;;4996637;28;20496;-81
2022/04/07 02:10:37;;;;;;;4.80;2.00;;;9.70;97.30;;;;;;4996534;28;20200;-81
2022/04/07 02:13:02;;;;;;;6.50;2.57;;;9.70;97.30;;;;;;4996426;28;20647;-82
2022/04/07 02:15:28;;;;;;;8.43;2.40;;;9.70;97.30;;;;;;4995972;28;20621;-81
2022/04/07 02:17:54;;;;;;;4.63;2.10;;;9.70;97.30;;;;;;4996228;28;20553;-81
2022/04/07 02:20:20;;;;;;;4.53;2.50;;;9.80;97.30;;;;;;4996840;28;20272;-81
2022/04/07 02:22:45;;;;;;;4.00;2.10;;;9.80;97.30;;;;;;4996809;28;20328;-82
2022/04/07 02:25:11;;;;;;;3.60;2.23;;;9.90;97.30;;;;;;4996681;28;20433;-82
2022/04/07 02:27:39;;;;;;;3.30;2.30;;;9.90;97.30;;;;;;4996328;28;20178;-82
2022/04/07 02:30:07;;;;;;;5.90;2.87;;;9.90;97.30;;;;;;4998269;28;20188;-82
2022/04/07 02:32:33;;;;;;;5.63;2.40;;;9.90;97.30;;;;;;4998596;28;20430;-81
2022/04/07 02:34:58;;;;;;;3.83;2.20;;;9.90;97.30;;;;;;4983123;28;20445;-82
2022/04/07 02:37:27;;;;;;;4.70;2.40;;;9.90;97.30;;;;;;4979094;28;20246;-81
2022/04/07 02:39:53;;;;;;;4.63;2.67;;;9.90;97.30;;;;;;4978936;28;20209;-81
2022/04/07 02:42:19;;;;;;;3.00;2.03;;;9.90;97.30;;;;;;4978193;28;20516;-80
2022/04/07 02:44:45;;;;;;;4.33;2.40;;;9.90;97.30;;;;;;4978841;28;20602;-81
2022/04/07 02:47:11;;;;;;;9.93;2.50;;;9.90;97.30;;;;;;4978014;28;20446;-80
2022/04/07 02:49:39;;;;;;;5.00;2.50;;;9.90;97.30;;;;;;4978268;28;20493;-80
2022/04/07 02:52:07;;;;;;;10.90;2.50;;;9.90;97.30;;;;;;4979886;28;20261;-80
2022/04/07 02:54:33;;;;;;;4.13;2.10;;;9.90;97.30;;;;;;4978146;28;20538;-81
2022/04/07 02:56:58;;;;;;;6.20;2.23;;;9.90;97.30;;;;;;4978757;28;20425;-80
2022/04/07 02:59:24;;;;;;;5.40;2.40;;;9.90;97.30;;;;;;4978439;28;20185;-81
2022/04/07 03:01:51;;;;;;;3.80;2.70;;;9.90;97.30;;;;;;4978561;28;20212;-81
2022/04/07 03:04:18;;;;;;;2.57;1.90;;;9.90;97.30;;;;;;4977630;28;20245;-81
2022/04/07 03:06:43;;;;;;;4.73;2.67;;;9.80;97.30;;;;;;4977768;28;20449;-82
2022/04/07 03:09:09;;;;;;;3.57;2.60;;;9.80;97.30;;;;;;4980200;28;20481;-82
2022/04/07 03:11:34;;;;;;;4.60;3.03;;;9.70;97.30;;;;;;4978583;28;20174;-82
2022/04/07 03:14:00;;;;;;;2.90;2.20;;;9.70;97.30;;;;;;4977844;28;20219;-81
2022/04/07 03:16:26;;;;;;;5.27;2.20;;;9.70;97.30;;;;;;4977403;28;20271;-80
2022/04/07 03:18:51;;;;;;;3.40;2.77;;;9.70;97.30;;;;;;4977334;28;20557;-81
2022/04/07 03:21:17;;;;;;;3.20;2.50;;;9.70;97.30;;;;;;4977960;28;20179;-81
2022/04/07 03:23:42;;;;;;;7.67;2.97;;;9.80;97.30;;;;;;4976487;28;20218;-81
2022/04/07 03:26:08;;;;;;;4.67;2.47;;;9.80;97.30;;;;;;4977272;28;20182;-81
2022/04/07 03:28:34;;;;;;;2.90;2.30;;;9.90;97.30;;;;;;4978085;28;20174;-81
2022/04/07 03:30:59;;;;;;;4.30;2.20;;;9.90;97.30;;;;;;4978021;28;20594;-81
2022/04/07 03:33:25;;;;;;;9.20;2.80;;;9.90;97.30;;;;;;4977810;28;20206;-81
2022/04/07 03:35:51;;;;;;;7.90;2.80;;;9.90;97.30;;;;;;4977554;28;20174;-82
2022/04/07 03:38:17;;;;;;;5.07;2.73;;;10.00;97.30;;;;;;4979306;28;20182;-82
2022/04/07 03:40:42;;;;;;;8.10;3.43;;;10.00;97.30;;;;;;4977442;28;20178;-82
2022/04/07 03:43:08;;;;;;;5.63;2.47;;;10.10;97.30;;;;;;4978303;28;20216;-83
2022/04/07 03:45:34;;;;;;;4.03;2.43;;;10.10;97.30;;;;;;4977585;28;20229;-81
2022/04/07 03:47:59;;;;;;;7.23;3.07;;;10.10;97.30;;;;;;4977557;28;20198;-82
2022/04/07 03:50:25;;;;;;;4.27;2.60;;;10.10;97.30;;;;;;4977182;28;20178;-82
2022/04/07 03:52:50;;;;;;;3.50;2.10;;;10.00;97.30;;;;;;4977934;28;20273;-82
2022/04/07 03:55:16;;;;;;;5.40;2.50;;;10.00;97.30;;;;;;4979385;28;20233;-82
2022/04/07 03:57:41;;;;;;;3.63;2.87;;;10.00;97.30;;;;;;4976875;28;20557;-82
2022/04/07 04:00:07;;;;;;;6.27;2.37;;;9.90;97.30;;;;;;4976552;28;20182;-82
2022/04/07 04:02:33;;;;;;;5.60;2.57;;;9.90;97.30;;;;;;4990869;28;20186;-83
2022/04/07 04:04:59;;;;;;;4.27;2.70;;;9.90;97.30;;;;;;4994177;28;20965;-83
2022/04/07 04:07:24;;;;;;;2.93;2.63;;;9.90;97.30;;;;;;4979997;28;20436;-82
2022/04/07 04:09:50;;;;;;;5.80;2.90;;;9.90;97.30;;;;;;4985932;28;20226;-82
2022/04/07 04:12:16;;;;;;;3.60;2.97;;;9.90;97.30;;;;;;4985463;28;20242;-82
2022/04/07 04:14:42;;;;;;;4.13;2.60;;;9.80;97.30;;;;;;4978894;28;20206;-83
2022/04/07 04:17:08;;;;;;;6.00;3.30;;;9.80;97.30;;;;;;4976287;28;20194;-83
2022/04/07 04:19:33;;;;;;;4.10;2.83;;;9.80;97.30;;;;;;4980317;28;20509;-83
2022/04/07 04:21:59;;;;;;;6.37;3.30;;;9.80;97.30;;;;;;4977543;28;20690;-83
2022/04/07 04:24:25;;;;;;;5.07;3.20;;;9.80;97.30;;;;;;4976340;28;20242;-83
2022/04/07 04:26:51;;;;;;;3.73;2.90;;;9.80;97.30;;;;;;4976110;28;20426;-84
2022/04/07 04:29:17;;;;;;;3.60;2.37;;;9.80;97.30;;;;;;4976642;28;20774;-83
2022/04/07 04:31:42;;;;;;;4.70;2.53;;;9.70;97.30;;;;;;4972280;28;20818;-81
2022/04/07 04:34:08;;;;;;;4.37;2.70;;;9.70;97.30;;;;;;4976383;28;20204;-81
2022/04/07 04:36:34;;;;;;;4.77;2.63;;;9.70;97.30;;;;;;4975457;28;20597;-82
2022/04/07 04:39:00;;;;;;;5.60;3.20;;;9.60;97.30;;;;;;4984361;28;20183;-81
2022/04/07 04:41:26;;;;;;;5.87;2.60;;;9.60;97.30;;;;;;4975314;28;20430;-81
2022/04/07 04:43:51;;;;;;;4.70;2.53;;;9.60;97.30;;;;;;4978087;28;20446;-82
2022/04/07 04:46:17;;;;;;;13.10;3.90;;;9.60;97.30;;;;;;4988437;28;20324;-81
2022/04/07 04:48:43;;;;;;;4.57;2.50;;;9.60;97.30;;;;;;4979623;28;20182;-81
2022/04/07 04:51:08;;;;;;;7.30;3.27;;;9.60;97.30;;;;;;4977693;28;20281;-82
2022/04/07 04:53:34;;;;;;;3.87;2.67;;;9.60;97.30;;;;;;4979130;28;20194;-81
2022/04/07 04:55:59;;;;;;;2.93;2.20;;;9.60;97.30;;;;;;4977111;28;20253;-81
2022/04/07 04:58:25;;;;;;;5.27;3.07;;;9.70;97.30;;;;;;4977906;28;20692;-82
2022/04/07 05:00:51;;;;;;;3.37;2.57;;;9.70;97.30;;;;;;4974590;28;20179;-81
2022/04/07 05:03:16;;;;;;;5.40;2.30;;;9.80;97.30;;;;;;4959635;28;20199;-81
2022/04/07 05:05:42;;;;;;;3.90;2.70;;;9.90;97.30;;;;;;4960931;28;20176;-82
2022/04/07 05:08:08;;;;;;;4.93;2.70;;;10.00;97.30;;;;;;4962761;29;20190;-82
2022/04/07 05:10:34;;;;;;;5.53;3.10;;;10.00;97.30;;;;;;4962733;28;20191;-81
2022/04/07 05:13:02;;;;;;;6.50;2.83;;;10.10;97.30;;;;;;4976927;28;20533;-83
2022/04/07 05:15:28;;;;;;;7.30;2.40;;;10.20;97.30;;;;;;4976458;28;20568;-82
2022/04/07 05:17:54;;;;;;;3.27;2.17;;;10.20;97.30;;;;;;4961152;29;20446;-81
2022/04/07 05:20:21;;;;;;;3.17;2.50;;;10.20;97.30;;;;;;4963063;28;20180;-82
2022/04/07 05:22:47;;;;;;;2.97;2.10;;;10.20;97.30;;;;;;4961629;29;20419;-83
2022/04/07 05:25:13;;;;;;;2.67;2.30;;;10.30;97.30;;;;;;4961027;28;20443;-83
2022/04/07 05:27:39;;;;;;;4.20;2.43;;;10.30;97.30;;;;;;4961728;29;20178;-83
2022/04/07 05:30:12;;;;;;;3.10;2.20;;;10.30;97.30;;;;;;4961478;29;20647;-83
2022/04/07 05:32:39;;;;;;;8.53;2.07;;;10.40;97.30;;;;;;4961119;29;20437;-82
2022/04/07 05:35:05;;;;;;;3.10;2.10;;;10.40;97.30;;;;;;4961333;28;20451;-82
2022/04/07 05:37:31;;;;;;;3.53;2.00;;;10.40;97.30;;;;;;4962842;28;20455;-82
2022/04/07 05:39:56;;;;;;;9.00;2.70;;;10.40;97.30;;;;;;4962525;29;20419;-82
2022/04/07 05:42:22;;;;;;;4.17;2.30;;;10.50;97.30;;;;;;4977459;28;20211;-82
2022/04/07 05:44:47;;;;;;;4.50;2.67;;;10.50;97.30;;;;;;4961524;28;20214;-82
2022/04/07 05:47:13;;;;;;;5.27;2.17;;;10.50;97.30;;;;;;4961346;29;20226;-82
2022/04/07 05:49:39;;;;;;;3.00;1.93;;;10.60;97.30;;;;;;4961254;29;20187;-81
2022/04/07 05:52:05;;;;;;;2.30;1.90;;;10.60;97.30;;;;;;4961264;29;20202;-82
2022/04/07 05:54:34;;;;;;;2.70;2.20;;;10.70;97.30;;;;;;4960855;28;20203;-82
2022/04/07 05:57:00;;;;;;;4.43;2.23;;;10.70;97.30;;;;;;4960654;29;20278;-80
2022/04/07 05:59:26;;;;;;;5.63;2.30;;;10.80;97.30;;;;;;4964950;28;20473;-80
2022/04/07 06:01:52;;;;;;;2.30;2.13;;;10.80;97.30;;;;;;4995935;28;20588;-81
2022/04/07 06:04:18;;;;;;;6.63;2.27;;;10.80;97.30;;;;;;4979854;28;20466;-81
2022/04/07 06:06:44;;;;;;;3.17;2.07;;;10.90;97.30;;;;;;4990632;28;20492;-80
2022/04/07 06:09:10;;;;;;;2.40;1.93;;;10.90;97.30;;;;;;4980219;28;20467;-81
2022/04/07 06:11:35;;;;;;;14.77;2.30;;;10.90;97.30;;;;;;4980405;28;20449;-82
2022/04/07 06:14:01;;;;;;;6.70;1.60;;;10.90;97.30;;;;;;4976289;28;20249;-82
2022/04/07 06:16:27;;;;;;;2.13;1.67;;;11.00;97.30;;;;;;4960643;28;20183;-81
2022/04/07 06:18:54;;;;;;;4.13;1.80;;;11.00;97.20;;;;;;4981463;28;20503;-81
2022/04/07 06:21:20;;;;;;;2.90;1.83;;;11.10;97.00;;;;;;4979903;28;20190;-81
2022/04/07 06:23:46;;;;;;;2.00;1.63;;;11.10;97.10;;;;;;4980913;28;20465;-81
2022/04/07 06:26:12;;;;;;;3.43;2.20;;;11.10;96.90;;;;;;4979830;28;20478;-82
2022/04/07 06:28:40;;;;;;;3.00;2.30;;;11.20;96.80;;;;;;4981397;28;20410;-81
2022/04/07 06:31:05;;;;;;;3.70;1.70;;;11.20;97.00;;;;;;4979634;28;20178;-82
2022/04/07 06:33:31;;;;;;;4.60;2.00;;;11.20;97.00;;;;;;4978003;28;20955;-84
2022/04/07 06:35:57;;;;;;;2.43;1.53;;;11.20;97.00;;;;;;5009268;28;20229;-83
2022/04/07 06:38:23;;;;;;;1.80;1.50;;;11.20;97.10;;;;;;4998302;28;20421;-83
2022/04/07 06:40:49;;;;;;;3.20;1.77;;;11.20;97.10;;;;;;4996846;28;20421;-86
2022/04/07 06:43:14;;;;;;;1.70;1.33;;;11.30;97.10;;;;;;4997177;28;20216;-84
2022/04/07 06:45:40;;;;;;;2.33;1.50;;;11.40;97.20;;;;;;4997469;28;20280;-83
2022/04/07 06:48:06;;;;;;;1.80;1.40;;;11.50;97.00;;;;;;5013201;28;20611;-84
2022/04/07 06:50:32;;;;;;;1.63;1.40;;;11.70;96.90;;;;;;4997165;28;20208;-84
2022/04/07 06:52:58;;;;;;;1.93;1.40;;;11.80;96.50;;;;;;4980837;28;20464;-84
2022/04/07 06:55:24;;;;;;;2.93;1.97;;;11.90;96.20;;;;;;4978711;28;20206;-84
2022/04/07 06:58:01;;;;;;;1.20;1.20;;;12.00;96.30;;;;;;4976026;28;20426;-85
2022/04/07 07:00:29;;;;;;;1.50;1.30;;;12.10;96.10;;;;;;4976968;28;20422;-83
2022/04/07 07:02:56;;;;;;;8.03;2.67;;;12.10;96.30;;;;;;4977134;28;20426;-83
2022/04/07 07:05:27;;;;;;;1.57;1.40;;;12.10;96.30;;;;;;4960619;28;20442;-85
2022/04/07 07:07:53;;;;;;;1.73;1.33;;;12.10;96.20;;;;;;4976836;28;20418;-84
2022/04/07 07:10:28;;;;;;;4.00;1.00;;;12.00;96.20;;;;;;4978874;28;20437;-84
2022/04/07 07:12:54;;;;;;;2.90;1.27;;;12.10;96.50;;;;;;4977569;28;20417;-84
2022/04/07 07:15:23;;;;;;;1.47;1.37;;;12.10;96.30;;;;;;4977219;28;20964;-84
2022/04/07 07:17:49;;;;;;;2.00;1.60;;;12.20;96.30;;;;;;4975269;28;20183;-84
2022/04/07 07:20:15;;;;;;;1.17;1.10;;;12.30;95.90;;;;;;4978488;28;20517;-84
2022/04/07 07:22:42;;;;;;;7.43;1.50;;;12.40;95.90;;;;;;4977566;28;20178;-83
2022/04/07 07:25:09;;;;;;;2.77;1.43;;;12.40;95.90;;;;;;4977115;28;20442;-86
2022/04/07 07:27:41;;;;;;;2.07;1.50;;;12.50;95.50;;;;;;4975924;28;20445;-84
2022/04/07 07:30:09;;;;;;;2.30;1.73;;;12.50;95.70;;;;;;4979496;28;20414;-84
2022/04/07 07:32:39;;;;;;;1.97;1.60;;;12.50;95.60;;;;;;4979445;28;20476;-84
2022/04/07 07:35:06;;;;;;;1.63;1.30;;;12.50;95.80;;;;;;4977634;28;20810;-82
2022/04/07 07:37:32;;;;;;;2.03;1.30;;;12.50;95.50;;;;;;4976088;28;20512;-83
2022/04/07 07:40:08;;;;;;;5.33;1.40;;;12.60;95.50;;;;;;4977826;28;20771;-84
2022/04/07 07:42:37;;;;;;;1.30;1.17;;;12.60;95.50;;;;;;4976969;28;20189;-83
2022/04/07 07:45:04;;;;;;;1.27;1.20;;;12.60;95.30;;;;;;4976387;28;20446;-84
2022/04/07 07:47:30;;;;;;;1.10;1.00;;;12.90;95.10;;;;;;4975584;28;20452;-84
2022/04/07 07:49:56;;;;;;;1.20;1.10;;;13.10;94.50;;;;;;4977465;28;20489;-85
2022/04/07 07:52:21;;;;;;;1.53;1.37;;;13.30;94.20;;;;;;4974371;28;20582;-86
2022/04/07 07:54:47;;;;;;;1.00;1.00;;;13.30;93.20;;;;;;4975064;28;20201;-85
2022/04/07 07:57:13;;;;;;;2.70;1.17;;;13.40;93.50;;;;;;4975406;28;20190;-84
2022/04/07 07:59:38;;;;;;;3.33;1.27;;;13.40;93.40;;;;;;4975115;28;20280;-84
2022/04/07 08:02:04;;;;;;;1.03;0.97;;;13.50;93.10;;;;;;4974330;28;20178;-84
2022/04/07 08:04:29;;;;;;;1.40;1.17;;;13.30;92.90;;;;;;4974064;28;20248;-84
2022/04/07 08:06:55;;;;;;;0.93;0.90;;;13.20;93.50;;;;;;4973992;28;20186;-84
2022/04/07 08:09:21;;;;;;;1.47;1.10;;;13.20;93.90;;;;;;4973341;28;20197;-85
2022/04/07 08:11:46;;;;;;;1.03;0.90;;;13.20;93.70;;;;;;4977280;28;20178;-84
2022/04/07 08:14:12;;;;;;;1.10;1.00;;;13.30;94.00;;;;;;4975319;28;20206;-84
2022/04/07 08:16:38;;;;;;;1.30;1.20;;;13.50;93.20;;;;;;4974691;28;20202;-83
2022/04/07 08:19:04;;;;;;;1.67;1.50;;;13.70;92.60;;;;;;4974388;28;20182;-83
2022/04/07 08:21:30;;;;;;;3.10;1.23;;;13.80;92.30;;;;;;4974170;28;20652;-85
2022/04/07 08:23:56;;;;;;;1.17;1.00;;;13.80;92.00;;;;;;4974853;28;20465;-84
2022/04/07 08:26:21;;;;;;;1.37;1.10;;;13.70;91.90;;;;;;4974064;28;20441;-86
2022/04/07 08:28:47;;;;;;;3.93;1.00;;;13.60;92.00;;;;;;4975320;28;20174;-85
2022/04/07 08:31:13;;;;;;;4.30;1.30;;;13.90;91.90;;;;;;4972751;28;20186;-83
2022/04/07 08:33:38;;;;;;;5.23;1.20;;;14.10;91.50;;;;;;4975909;28;20202;-84
2022/04/07 08:36:04;;;;;;;12.30;1.17;;;14.20;90.70;;;;;;4973853;28;20229;-84
2022/04/07 08:38:30;;;;;;;1.23;1.17;;;14.10;90.50;;;;;;4978024;28;20182;-84
2022/04/07 08:40:56;;;;;;;2.00;1.47;;;14.30;91.00;;;;;;4975650;28;20243;-83
2022/04/07 08:43:23;;;;;;;3.47;1.10;;;14.20;90.60;;;;;;4978226;28;20214;-84
2022/04/07 08:45:49;;;;;;;2.30;1.20;;;14.30;90.30;;;;;;4976232;28;20429;-82
2022/04/07 08:48:15;;;;;;;2.10;1.07;;;14.40;89.30;;;;;;4976603;28;20425;-84
2022/04/07 08:50:43;;;;;;;2.00;1.10;;;14.10;89.40;;;;;;4978206;28;20606;-84
2022/04/07 08:53:10;;;;;;;3.33;1.20;;;14.10;90.00;;;;;;4977299;28;20498;-85
2022/04/07 08:55:37;;;;;;;1.70;1.07;;;14.20;89.80;;;;;;4978071;28;20642;-84
2022/04/07 08:58:03;;;;;;;1.70;1.47;;;14.20;90.00;;;;;;4979115;28;20426;-84
2022/04/07 09:00:29;;;;;;;2.53;1.30;;;14.20;89.70;;;;;;4977717;28;20422;-84
2022/04/07 09:02:55;;;;;;;3.27;1.20;;;14.10;89.50;;;;;;4978702;28;20421;-82
2022/04/07 09:05:25;;;;;;;3.00;1.00;;;14.10;89.70;;;;;;4979726;28;20478;-83
2022/04/07 09:07:56;;;;;;;2.40;1.40;;;14.00;89.60;;;;;;4979328;28;20477;-83
2022/04/07 09:10:24;;;;;;;1.73;1.23;;;14.00;89.00;;;;;;4979735;28;20414;-83
2022/04/07 09:12:53;;;;;;;16.93;2.20;;;14.00;88.90;;;;;;4978545;28;20593;-85
2022/04/07 09:15:19;;;;;;;4.07;1.10;;;14.00;88.60;;;;;;4978705;28;20446;-82
2022/04/07 09:17:53;;;;;;;3.40;1.20;;;14.20;88.90;;;;;;4976954;28;20434;-85
2022/04/07 09:20:20;;;;;;;3.67;1.30;;;14.40;87.90;;;;;;4980300;28;20418;-83
2022/04/07 09:22:57;;;;;;;3.10;0.90;;;14.60;87.90;;;;;;4978901;28;20419;-84
2022/04/07 09:25:24;;;;;;;2.03;1.20;;;14.70;87.70;;;;;;4961789;28;20447;-83
2022/04/07 09:27:51;;;;;;;3.03;1.00;;;15.00;87.30;;;;;;4998269;28;20451;-84
2022/04/07 09:30:17;;;;;;;2.90;1.00;;;15.30;87.30;;;;;;4997345;28;20472;-84
2022/04/07 09:32:44;;;;;;;1.03;1.00;;;15.30;86.00;;;;;;4997511;28;20177;-83
2022/04/07 09:35:11;;;;;;;3.53;1.27;;;15.30;85.80;;;;;;4998086;28;20460;-84
2022/04/07 09:37:40;;;;;;;1.43;1.00;;;15.10;86.60;;;;;;4997481;28;20461;-82
2022/04/07 09:40:07;;;;;;;1.20;1.07;;;14.90;86.50;;;;;;4998302;28;20449;-84
2022/04/07 09:42:34;;;;;;;1.03;0.93;;;14.60;86.90;;;;;;4999161;28;20448;-82
2022/04/07 09:45:01;;;;;;;2.93;1.00;;;14.60;87.50;;;;;;4998342;28;20483;-84
2022/04/07 09:47:42;;;;;;;1.77;1.07;;;14.60;87.20;;;;;;4997282;28;20536;-82
2022/04/07 09:50:19;;;;;;;3.40;1.07;;;14.50;87.60;;;;;;4996943;28;20416;-83
2022/04/07 09:53:15;;;;;;;4.00;0.90;;;14.60;87.70;;;;;;4996533;28;20570;-84
2022/04/07 09:55:41;;;;;;;2.60;1.33;;;14.90;87.10;;;;;;4981772;28;20413;-81
2022/04/07 09:58:08;;;;;;;2.93;1.10;;;15.00;87.50;;;;;;4996968;28;20421;-83
2022/04/07 10:00:35;;;;;;;3.03;1.03;;;14.90;86.90;;;;;;4997770;28;20978;-82
2022/04/07 10:03:05;;;;;;;2.70;1.00;;;14.80;87.10;;;;;;4997054;28;20436;-83
2022/04/07 10:05:31;;;;;;;2.03;1.10;;;14.70;87.20;;;;;;4999460;28;20413;-82
2022/04/07 10:07:57;;;;;;;5.33;1.40;;;14.50;87.50;;;;;;4998034;28;20417;-83
2022/04/07 10:10:24;;;;;;;2.27;1.10;;;14.50;87.70;;;;;;4997045;28;20424;-84
2022/04/07 10:12:51;;;;;;;3.80;1.47;;;14.40;87.90;;;;;;4997743;28;20417;-82
2022/04/07 10:15:17;;;;;;;1.10;0.90;;;14.30;88.20;;;;;;4997338;28;20441;-82
2022/04/07 10:17:43;;;;;;;1.47;1.20;;;14.30;88.60;;;;;;4997783;28;20424;-83
2022/04/07 10:20:12;;;;;;;5.50;1.23;;;14.20;88.20;;;;;;4997341;28;20414;-82
2022/04/07 10:22:50;;;;;;;4.50;1.17;;;14.20;88.50;;;;;;4998009;28;20496;-82
2022/04/07 10:25:17;;;;;;;8.53;1.47;;;14.10;88.80;;;;;;4998183;28;20441;-85
2022/04/07 10:27:50;;;;;;;2.30;1.17;;;14.00;88.90;;;;;;4956779;29;20418;-85
2022/04/07 10:30:16;;;;;;;2.10;1.10;;;13.90;88.90;;;;;;4957991;28;20410;-81
2022/04/07 10:32:46;;;;;;;1.53;1.10;;;13.90;89.30;;;;;;4958351;28;20507;-80
2022/04/07 10:35:32;;;;;;;3.13;1.10;;;14.00;89.40;;;;;;4957364;28;20463;-80
2022/04/07 10:37:59;;;;;;;3.23;1.53;;;14.10;89.70;;;;;;4958189;28;20555;-82
2022/04/07 10:40:51;;;;;;;6.87;2.40;;;14.10;89.10;;;;;;4958817;28;20495;-85
2022/04/07 10:43:19;;;;;;;3.43;1.27;;;14.10;88.80;;;;;;4957617;28;20543;-81
2022/04/07 10:45:50;;;;;;;2.40;1.00;;;14.10;89.00;;;;;;4958411;28;20415;-82
2022/04/07 10:48:30;;;;;;;2.30;1.30;;;14.10;89.70;;;;;;4957514;29;20403;-82
2022/04/07 10:51:00;;;;;;;3.13;1.47;;;14.10;89.40;;;;;;4956798;28;20418;-82
2022/04/07 10:53:28;;;;;;;4.13;1.77;;;14.00;89.30;;;;;;4957444;28;20446;-80
2022/04/07 10:55:54;;;;;;;5.20;1.27;;;14.00;89.30;;;;;;4957379;28;20427;-83
2022/04/07 10:58:20;;;;;;;10.10;1.43;;;13.90;89.60;;;;;;4957235;28;20430;-82
2022/04/07 11:00:46;;;;;;;7.10;1.37;;;13.90;89.30;;;;;;4956606;28;20190;-82
2022/04/07 11:03:16;;;;;;;6.67;1.40;;;13.90;90.20;;;;;;4957805;28;20458;-82
2022/04/07 11:05:52;;;;;;;17.33;1.53;;;13.80;91.20;;;;;;4970448;28;20958;-83
2022/04/07 11:08:21;;;;;;;6.30;1.83;;;13.80;91.20;;;;;;4991865;28;20425;-80
2022/04/07 11:10:48;;;;;;;12.47;1.67;;;13.80;91.70;;;;;;4991966;28;20497;-79
2022/04/07 11:13:14;;;;;;;13.30;2.73;;;13.80;90.90;;;;;;4991794;28;20939;-80
2022/04/07 11:15:45;;;;;;;6.33;1.67;;;13.90;90.30;;;;;;4990368;28;20457;-80
2022/04/07 11:18:34;;;;;;;13.40;1.87;;;14.00;90.30;;;;;;4974859;28;20847;-80
2022/04/07 11:21:02;;;;;;;12.10;1.67;;;14.00;90.30;;;;;;4978365;28;20512;-82
2022/04/07 11:23:49;;;;;;;3.47;1.20;;;14.00;90.20;;;;;;4977037;28;20865;-83
2022/04/07 11:26:25;;;;;;;13.33;1.60;;;14.00;90.20;;;;;;4973100;28;20964;-81
2022/04/07 11:29:10;;;;;;;9.60;1.57;;;14.00;90.20;;;;;;4975546;28;20480;-80
2022/04/07 11:31:48;;;;;;;4.73;1.23;;;13.90;90.40;;;;;;4973571;28;20452;-82
2022/04/07 11:34:36;;;;;;;11.20;3.00;;;13.90;90.40;;;;;;4972726;28;20468;-81
2022/04/07 11:37:14;;;;;;;11.80;1.70;;;14.00;90.30;;;;;;4965457;28;20474;-82
2022/04/07 11:39:50;;;;;;;11.43;1.77;;;14.00;90.40;;;;;;4995396;28;20467;-80
2022/04/07 11:42:18;;;;;;;8.70;1.87;;;14.10;90.70;;;;;;4996107;28;20400;-82
2022/04/07 11:44:45;;;;;;;17.13;1.97;;;14.10;90.30;;;;;;4993788;28;20480;-83
2022/04/07 11:47:25;;;;;;;3.03;1.70;;;14.10;90.40;;;;;;4994086;28;20563;-84
2022/04/07 11:49:51;;;;;;;5.83;1.30;;;14.10;90.60;;;;;;4995338;28;20412;-83
2022/04/07 11:52:32;;;;;;;4.63;1.33;;;14.10;90.50;;;;;;4994034;28;20413;-83
2022/04/07 11:55:00;;;;;;;5.73;1.83;;;14.20;90.70;;;;;;4994223;28;20197;-82
2022/04/07 11:57:28;;;;;;;9.47;1.53;;;14.20;90.80;;;;;;4996002;28;20485;-83
2022/04/07 11:59:59;;;;;;;23.90;2.13;;;14.20;91.00;;;;;;4994654;28;20508;-83
2022/04/07 12:02:25;;;;;;;4.57;1.27;;;14.20;90.80;;;;;;4994668;28;20428;-83
2022/04/07 12:05:03;;;;;;;4.50;1.83;;;14.20;90.90;;;;;;4994008;28;20475;-83
2022/04/07 12:07:29;;;;;;;25.33;2.73;;;14.30;91.10;;;;;;4994673;28;20419;-83
2022/04/07 12:09:56;;;;;;;6.40;1.77;;;14.40;90.60;;;;;;4995565;28;20500;-82
2022/04/07 12:12:23;;;;;;;6.97;1.37;;;14.40;90.60;;;;;;4993741;28;20459;-84
2022/04/07 12:14:50;;;;;;;9.03;1.40;;;14.30;90.60;;;;;;4994405;28;20441;-82
2022/04/07 12:17:16;;;;;;;6.93;1.47;;;14.20;91.00;;;;;;4997800;28;20471;-83
2022/04/07 12:19:43;;;;;;;4.40;1.30;;;14.20;91.10;;;;;;4998103;28;20830;-80
2022/04/07 12:22:09;;;;;;;6.40;1.37;;;14.20;91.50;;;;;;4989435;28;20657;-82
2022/04/07 12:24:35;;;;;;;2.53;1.10;;;14.20;91.70;;;;;;4957635;28;20469;-82
2022/04/07 12:27:00;;;;;;;9.93;1.27;;;14.20;91.60;;;;;;4985869;28;20185;-81
2022/04/07 12:29:31;;;;;;;15.73;1.27;;;14.20;91.70;;;;;;4997110;28;20331;-82
2022/04/07 12:32:03;;;;;;;8.57;1.37;;;14.20;91.70;;;;;;4997266;28;20204;-81
2022/04/07 12:34:29;;;;;;;5.40;1.80;;;14.20;91.60;;;;;;5002037;28;20954;-82
2022/04/07 12:36:56;;;;;;;5.03;1.10;;;14.10;91.50;;;;;;4997417;28;20500;-83
2022/04/07 12:39:26;;;;;;;11.70;2.10;;;14.20;91.60;;;;;;4999461;28;20417;-83
2022/04/07 12:41:52;;;;;;;11.50;2.07;;;14.20;92.10;;;;;;5001737;28;20413;-84
2022/04/07 12:44:21;;;;;;;10.50;1.50;;;14.20;91.80;;;;;;4999052;28;20695;-83
2022/04/07 12:46:48;;;;;;;18.87;1.83;;;14.20;91.60;;;;;;5000548;28;20884;-82
2022/04/07 12:49:21;;;;;;;16.03;2.57;;;14.30;91.70;;;;;;4998988;28;20731;-83